createdAt,value
2019-04-04T00:00:01.300Z,40.77
2019-04-04T00:03:31.619Z,40.81
2019-04-04T00:07:01.888Z,40.87
2019-04-04T00:10:32.830Z,40.89
2019-04-04T00:14:04.950Z,40.96
2019-04-04T00:17:35.178Z,41
2019-04-04T00:21:05.408Z,41.04
2019-04-04T00:24:35.554Z,41.11
2019-04-04T00:28:05.763Z,41.15
2019-04-04T00:31:35.956Z,41.21
2019-04-04T00:35:06.352Z,41.27
2019-04-04T00:38:37.996Z,41.32
2019-04-04T00:42:08.825Z,41.37
2019-04-04T00:45:39.071Z,41.43
2019-04-04T00:49:09.237Z,41.47
2019-04-04T00:52:41.329Z,41.53
2019-04-04T00:56:11.536Z,41.58
2019-04-04T00:59:41.726Z,41.64
2019-04-04T01:00:16.367Z,41.64
2019-04-04T01:03:46.585Z,41.7
2019-04-04T01:07:16.688Z,41.76
2019-04-04T01:10:49.540Z,41.82
2019-04-04T01:14:20.204Z,41.87
2019-04-04T01:17:50.303Z,41.91
2019-04-04T01:21:22.169Z,41.99
2019-04-04T01:24:53.106Z,42.04
2019-04-04T01:28:23.226Z,42.1
2019-04-04T01:31:53.379Z,42.15
2019-04-04T01:35:23.540Z,42.22
2019-04-04T01:38:53.658Z,42.28
2019-04-04T01:42:23.738Z,42.34
2019-04-04T01:45:53.801Z,42.4
2019-04-04T01:49:23.894Z,42.46
2019-04-04T01:52:53.917Z,42.53
2019-04-04T01:56:23.982Z,42.59
2019-04-04T01:59:54.166Z,42.65
2019-04-04T02:03:24.385Z,42.72
2019-04-04T02:06:54.471Z,42.8
2019-04-04T02:10:24.508Z,42.88
2019-04-04T02:13:54.628Z,42.94
2019-04-04T02:17:24.716Z,43.03
2019-04-04T02:20:57.600Z,43.11
2019-04-04T02:24:28.089Z,43.18
2019-04-04T02:27:58.149Z,43.25
2019-04-04T02:31:30.623Z,43.33
2019-04-04T02:35:00.771Z,43.41
2019-04-04T02:38:30.848Z,43.46
2019-04-04T02:42:00.963Z,43.55
2019-04-04T02:45:31.095Z,43.63
2019-04-04T02:49:01.143Z,43.72
2019-04-04T02:52:31.141Z,43.79
2019-04-04T02:56:03.338Z,43.9
2019-04-04T02:59:33.776Z,43.96
2019-04-04T03:00:15.588Z,43.98
2019-04-04T03:03:45.917Z,44.08
2019-04-04T03:07:16.146Z,44.16
2019-04-04T03:10:49.018Z,44.26
2019-04-04T03:14:19.445Z,44.33
2019-04-04T03:17:49.428Z,44.44
2019-04-04T03:21:22.216Z,44.52
2019-04-04T03:24:53.396Z,44.61
2019-04-04T03:28:23.503Z,44.69
2019-04-04T03:31:53.611Z,44.78
2019-04-04T03:35:27.690Z,44.85
2019-04-04T03:38:59.018Z,44.94
2019-04-04T03:42:29.040Z,45.04
2019-04-04T03:46:01.329Z,45.11
2019-04-04T03:49:31.756Z,45.18
2019-04-04T03:53:01.981Z,45.29
2019-04-04T03:56:38.670Z,45.37
2019-04-04T04:00:24.365Z,45.46
2019-04-04T04:03:55.522Z,45.57
2019-04-04T04:07:25.773Z,45.66
2019-04-04T04:10:55.910Z,45.73
2019-04-04T04:14:25.977Z,45.82
2019-04-04T04:17:55.913Z,45.9
2019-04-04T04:21:25.951Z,46
2019-04-04T04:24:56.214Z,46.09
2019-04-04T04:28:26.195Z,46.18
2019-04-04T04:31:56.374Z,46.27
2019-04-04T04:35:26.514Z,46.36
2019-04-04T04:39:00.073Z,46.47
2019-04-04T04:42:30.377Z,46.56
2019-04-04T04:46:00.497Z,46.65
2019-04-04T04:49:30.522Z,46.74
2019-04-04T04:53:00.581Z,46.82
2019-04-04T04:56:31.389Z,46.93
2019-04-04T05:00:16.037Z,47.04
2019-04-04T05:03:47.018Z,47.14
2019-04-04T05:07:17.239Z,47.24
2019-04-04T05:10:47.279Z,47.33
2019-04-04T05:14:17.362Z,47.43
2019-04-04T05:17:47.442Z,47.52
2019-04-04T05:21:24.870Z,47.59
2019-04-04T05:25:08.064Z,47.67
2019-04-04T05:28:41.832Z,47.76
2019-04-04T05:32:12.193Z,47.83
2019-04-04T05:35:42.236Z,47.9
2019-04-04T05:39:12.346Z,47.97
2019-04-04T05:42:42.478Z,48.03
2019-04-04T05:46:12.599Z,48.08
2019-04-04T05:49:42.763Z,48.14
2019-04-04T05:53:12.786Z,48.18
2019-04-04T05:56:44.534Z,48.23
2019-04-04T06:00:16.022Z,48.27
2019-04-04T06:03:47.809Z,48.31
2019-04-04T06:07:18.163Z,48.36
2019-04-04T06:10:50.117Z,48.39
2019-04-04T06:14:20.782Z,48.43
2019-04-04T06:17:50.913Z,48.46
2019-04-04T06:21:20.968Z,48.47
2019-04-04T06:24:52.099Z,48.5
2019-04-04T06:28:22.439Z,48.5
2019-04-04T06:31:52.599Z,48.52
2019-04-04T06:35:22.819Z,48.52
2019-04-04T06:38:53.896Z,48.54
2019-04-04T06:42:24.641Z,48.51
2019-04-04T06:45:54.817Z,48.5
2019-04-04T06:49:24.891Z,48.5
2019-04-04T06:52:56.551Z,48.48
2019-04-04T06:56:26.874Z,48.47
2019-04-04T06:59:56.901Z,48.46
2019-04-04T07:00:15.918Z,48.46
2019-04-04T07:03:46.710Z,48.42
2019-04-04T07:07:16.802Z,48.41
2019-04-04T07:10:57.337Z,48.38
2019-04-04T07:14:29.888Z,48.33
2019-04-04T07:18:02.000Z,48.3
2019-04-04T07:21:31.986Z,48.28
2019-04-04T07:25:05.764Z,48.24
2019-04-04T07:28:36.670Z,48.22
2019-04-04T07:32:07.211Z,48.18
2019-04-04T07:35:39.473Z,48.15
2019-04-04T07:39:12.246Z,48.12
2019-04-04T07:42:42.595Z,48.09
2019-04-04T07:46:16.710Z,48.06
2019-04-04T07:49:47.225Z,48.01
2019-04-04T07:53:17.235Z,48
2019-04-04T07:56:48.875Z,47.97
2019-04-04T08:00:19.248Z,47.95
2019-04-04T08:03:49.380Z,47.91
2019-04-04T08:07:19.477Z,47.88
2019-04-04T08:10:49.547Z,47.81
2019-04-04T08:14:19.731Z,47.8
2019-04-04T08:17:49.884Z,47.77
2019-04-04T08:21:20.002Z,47.73
2019-04-04T08:24:50.093Z,47.7
2019-04-04T08:28:20.276Z,47.66
2019-04-04T08:31:50.430Z,47.63
2019-04-04T08:35:20.516Z,47.6
2019-04-04T08:38:50.639Z,47.55
2019-04-04T08:42:20.709Z,47.53
2019-04-04T08:45:50.839Z,47.48
2019-04-04T08:49:20.992Z,47.43
2019-04-04T08:52:51.221Z,47.4
2019-04-04T08:56:21.322Z,47.36
2019-04-04T08:59:51.409Z,47.32
2019-04-04T09:00:15.664Z,47.31
2019-04-04T09:03:45.837Z,47.24
2019-04-04T09:07:15.958Z,47.21
2019-04-04T09:10:46.171Z,47.14
2019-04-04T09:14:16.235Z,47.06
2019-04-04T09:17:46.394Z,47.01
2019-04-04T09:21:16.653Z,46.95
2019-04-04T09:24:46.907Z,46.89
2019-04-04T09:28:17.071Z,46.81
2019-04-04T09:31:47.213Z,46.78
2019-04-04T09:35:17.350Z,46.72
2019-04-04T09:38:47.457Z,46.65
2019-04-04T09:42:17.598Z,46.56
2019-04-04T09:45:47.800Z,46.49
2019-04-04T09:49:18.001Z,46.43
2019-04-04T09:52:48.134Z,46.36
2019-04-04T09:56:18.269Z,46.3
2019-04-04T09:59:48.425Z,46.22
2019-04-04T10:03:18.592Z,46.16
2019-04-04T10:06:48.816Z,46.09
2019-04-04T10:10:19.397Z,46.02
2019-04-04T10:13:49.551Z,45.95
2019-04-04T10:17:19.740Z,45.89
2019-04-04T10:20:49.964Z,45.81
2019-04-04T10:24:20.110Z,45.74
2019-04-04T10:27:50.184Z,45.67
2019-04-04T10:31:20.336Z,45.58
2019-04-04T10:34:50.483Z,45.51
2019-04-04T10:38:20.587Z,45.42
2019-04-04T10:41:50.842Z,45.34
2019-04-04T10:45:20.938Z,45.26
2019-04-04T10:48:51.241Z,45.16
2019-04-04T10:52:21.357Z,45.05
2019-04-04T10:55:51.548Z,44.95
2019-04-04T10:59:21.690Z,44.86
2019-04-04T11:00:15.686Z,44.82
2019-04-04T11:03:45.841Z,44.72
2019-04-04T11:07:15.941Z,44.61
2019-04-04T11:10:46.081Z,44.48
2019-04-04T11:14:16.224Z,44.37
2019-04-04T11:17:46.357Z,44.24
2019-04-04T11:21:16.517Z,44.13
2019-04-04T11:24:46.714Z,44.03
2019-04-04T11:28:16.770Z,43.9
2019-04-04T11:31:46.867Z,43.77
2019-04-04T11:35:16.947Z,43.66
2019-04-04T11:38:46.931Z,43.54
2019-04-04T11:42:17.014Z,43.42
2019-04-04T11:45:47.102Z,43.31
2019-04-04T11:49:17.173Z,43.19
2019-04-04T11:52:47.274Z,43.08
2019-04-04T11:56:17.305Z,42.98
2019-04-04T11:59:47.385Z,42.89
2019-04-04T12:03:17.418Z,42.79
2019-04-04T12:06:47.548Z,42.7
2019-04-04T12:10:17.662Z,42.62
2019-04-04T12:13:50.444Z,42.54
2019-04-04T12:17:20.888Z,42.44
2019-04-04T12:20:50.956Z,42.34
2019-04-04T12:24:21.087Z,42.26
2019-04-04T12:27:51.297Z,42.13
2019-04-04T12:31:21.525Z,42.04
2019-04-04T12:34:51.849Z,41.93
2019-04-04T12:38:22.036Z,41.83
2019-04-04T12:41:52.177Z,41.73
2019-04-04T12:45:22.740Z,41.64
2019-04-04T12:48:52.914Z,41.54
2019-04-04T12:52:23.033Z,41.44
2019-04-04T12:55:54.302Z,41.35
2019-04-04T12:59:24.597Z,41.24
2019-04-04T13:00:15.981Z,41.2
2019-04-04T13:03:46.222Z,41.12
2019-04-04T13:07:16.290Z,41.01
2019-04-04T13:10:46.569Z,40.94
2019-04-04T13:14:16.691Z,40.87
2019-04-04T13:17:46.712Z,40.79
2019-04-04T13:21:16.717Z,40.73
2019-04-04T13:24:46.887Z,40.65
2019-04-04T13:28:17.010Z,40.56
2019-04-04T13:31:47.102Z,40.48
2019-04-04T13:35:17.170Z,40.4
2019-04-04T13:38:47.248Z,40.31
2019-04-04T13:42:17.271Z,40.25
2019-04-04T13:45:47.495Z,40.18
2019-04-04T13:49:17.639Z,40.12
2019-04-04T13:52:47.897Z,40.04
2019-04-04T13:56:17.942Z,39.96
2019-04-04T13:59:48.185Z,39.92
2019-04-04T14:03:18.872Z,39.87
2019-04-04T14:06:49.213Z,39.83
2019-04-04T14:10:19.353Z,39.79
2019-04-04T14:13:49.642Z,39.72
2019-04-04T14:17:19.864Z,39.64
2019-04-04T14:21:02.956Z,39.6
2019-04-04T14:24:34.343Z,39.54
2019-04-04T14:28:04.564Z,39.5
2019-04-04T14:31:34.664Z,39.48
2019-04-04T14:35:05.175Z,39.45
2019-04-04T14:38:35.357Z,39.45
2019-04-04T14:42:05.637Z,39.4
2019-04-04T14:45:35.891Z,39.37
2019-04-04T14:49:06.077Z,39.37
2019-04-04T14:52:39.170Z,39.35
2019-04-04T14:56:09.823Z,39.35
2019-04-04T14:59:39.974Z,39.31
2019-04-04T15:00:17.389Z,39.31
2019-04-04T15:03:47.685Z,39.28
2019-04-04T15:07:17.819Z,39.24
2019-04-04T15:10:47.832Z,39.24
2019-04-04T15:14:17.924Z,39.24
2019-04-04T15:17:48.200Z,39.22
2019-04-04T15:21:18.237Z,39.23
2019-04-04T15:24:48.360Z,39.21
2019-04-04T15:28:18.553Z,39.2
2019-04-04T15:31:48.565Z,39.18
2019-04-04T15:35:18.672Z,39.14
2019-04-04T15:38:48.826Z,39.11
2019-04-04T15:42:18.816Z,39.07
2019-04-04T15:45:48.987Z,39.06
2019-04-04T15:49:19.176Z,39.04
2019-04-04T15:52:49.155Z,39.08
2019-04-04T15:56:19.353Z,39.09
2019-04-04T15:59:49.502Z,39.14
2019-04-04T16:03:19.642Z,39.17
2019-04-04T16:06:49.703Z,39.22
2019-04-04T16:10:19.934Z,39.3
2019-04-04T16:13:49.952Z,39.36
2019-04-04T16:17:20.236Z,39.42
2019-04-04T16:20:50.263Z,39.5
2019-04-04T16:24:20.583Z,39.6
2019-04-04T16:27:50.684Z,39.71
2019-04-04T16:31:20.894Z,39.8
2019-04-04T16:34:52.579Z,39.93
2019-04-04T16:38:23.113Z,40.01
2019-04-04T16:42:02.017Z,40.1
2019-04-04T16:45:32.833Z,40.21
2019-04-04T16:49:03.034Z,40.31
2019-04-04T16:52:33.147Z,40.43
2019-04-04T16:56:03.695Z,40.55
2019-04-04T16:59:34.016Z,40.65
2019-04-04T17:00:17.092Z,40.7
2019-04-04T17:03:47.217Z,40.8
2019-04-04T17:07:17.363Z,40.94
2019-04-04T17:10:47.378Z,41.07
2019-04-04T17:14:17.488Z,41.19
2019-04-04T17:17:47.508Z,41.33
2019-04-04T17:21:17.614Z,41.46
2019-04-04T17:24:47.753Z,41.58
2019-04-04T17:28:18.055Z,41.74
2019-04-04T17:31:48.159Z,41.86
2019-04-04T17:35:18.884Z,42
2019-04-04T17:38:49.256Z,42.12
2019-04-04T17:42:29.605Z,42.24
2019-04-04T17:46:02.137Z,42.37
2019-04-04T17:49:32.720Z,42.49
2019-04-04T17:53:03.037Z,42.63
2019-04-04T17:56:33.157Z,42.76
2019-04-04T18:00:04.741Z,42.9
2019-04-04T18:03:34.875Z,43.03
2019-04-04T18:07:04.995Z,43.16
2019-04-04T18:10:35.072Z,43.3
2019-04-04T18:14:05.150Z,43.43
2019-04-04T18:17:35.402Z,43.56
2019-04-04T18:21:05.627Z,43.69
2019-04-04T18:24:35.664Z,43.83
2019-04-04T18:28:05.918Z,43.96
2019-04-04T18:31:35.934Z,44.11
2019-04-04T18:35:06.519Z,44.25
2019-04-04T18:38:36.597Z,44.37
2019-04-04T18:42:06.756Z,44.52
2019-04-04T18:45:36.830Z,44.66
2019-04-04T18:49:07.008Z,44.8
2019-04-04T18:52:37.155Z,44.93
2019-04-04T18:56:07.169Z,45.08
2019-04-04T18:59:37.286Z,45.2
2019-04-04T19:00:16.839Z,45.23
2019-04-04T19:03:47.018Z,45.36
2019-04-04T19:07:17.167Z,45.51
2019-04-04T19:10:47.250Z,45.64
2019-04-04T19:14:17.346Z,45.76
2019-04-04T19:17:47.429Z,45.92
2019-04-04T19:21:17.479Z,46.07
2019-04-04T19:24:47.644Z,46.18
2019-04-04T19:28:17.797Z,46.32
2019-04-04T19:31:47.811Z,46.48
2019-04-04T19:35:18.261Z,46.58
2019-04-04T19:38:48.337Z,46.71
2019-04-04T19:42:18.325Z,46.86
2019-04-04T19:45:48.503Z,46.98
2019-04-04T19:49:18.657Z,47.11
2019-04-04T19:52:48.853Z,47.23
2019-04-04T19:56:18.799Z,47.36
2019-04-04T19:59:48.954Z,47.46
2019-04-04T20:03:19.110Z,47.58
2019-04-04T20:06:49.308Z,47.72
2019-04-04T20:10:19.522Z,47.83
2019-04-04T20:13:49.726Z,47.94
2019-04-04T20:17:19.847Z,48.09
2019-04-04T20:20:49.999Z,48.18
2019-04-04T20:24:20.143Z,48.31
2019-04-04T20:27:55.032Z,48.42
2019-04-04T20:31:25.421Z,48.56
2019-04-04T20:34:55.670Z,48.65
2019-04-04T20:38:25.758Z,48.78
2019-04-04T20:41:55.866Z,48.88
2019-04-04T20:45:25.994Z,49
2019-04-04T20:48:56.051Z,49.11
2019-04-04T20:52:26.023Z,49.23
2019-04-04T20:55:56.115Z,49.33
2019-04-04T20:59:28.021Z,49.44
2019-04-04T21:00:56.403Z,49.46
2019-04-04T21:04:26.588Z,49.59
2019-04-04T21:07:56.633Z,49.69
2019-04-04T21:11:26.718Z,49.8
2019-04-04T21:14:56.765Z,49.9
2019-04-04T21:18:26.783Z,50.01
2019-04-04T21:21:56.884Z,50.13
2019-04-04T21:25:27.039Z,50.22
2019-04-04T21:28:57.096Z,50.31
2019-04-04T21:32:27.149Z,50.41
2019-04-04T21:35:57.340Z,50.51
2019-04-04T21:39:29.783Z,50.6
2019-04-04T21:43:00.186Z,50.7
2019-04-04T21:46:30.332Z,50.8
2019-04-04T21:50:00.517Z,50.88
2019-04-04T21:53:30.575Z,50.97
2019-04-04T21:57:00.703Z,51.07
2019-04-04T22:00:42.605Z,51.15
2019-04-04T22:04:12.681Z,51.25
2019-04-04T22:07:42.821Z,51.36
2019-04-04T22:11:12.995Z,51.45
2019-04-04T22:14:43.067Z,51.56
2019-04-04T22:18:13.156Z,51.65
2019-04-04T22:21:43.287Z,51.76
2019-04-04T22:25:13.347Z,51.85
2019-04-04T22:28:43.459Z,51.94
2019-04-04T22:32:13.452Z,52.02
2019-04-04T22:35:43.545Z,52.1
2019-04-04T22:39:13.567Z,52.18
2019-04-04T22:42:43.606Z,52.26
2019-04-04T22:46:13.680Z,52.33
2019-04-04T22:49:43.690Z,52.39
2019-04-04T22:53:13.680Z,52.47
2019-04-04T22:56:43.892Z,52.55
2019-04-04T23:00:16.621Z,52.62
2019-04-04T23:03:46.733Z,52.7
2019-04-04T23:07:16.727Z,52.77
2019-04-04T23:10:46.818Z,52.84
2019-04-04T23:14:16.870Z,52.94
2019-04-04T23:17:47.099Z,53.03
2019-04-04T23:21:17.222Z,53.09
2019-04-04T23:24:47.336Z,53.17
2019-04-04T23:28:17.462Z,53.26
2019-04-04T23:31:47.586Z,53.33
2019-04-04T23:35:17.746Z,53.38
2019-04-04T23:38:47.986Z,53.45
2019-04-04T23:42:18.130Z,53.52
2019-04-04T23:45:48.230Z,53.61
2019-04-04T23:49:18.289Z,53.67
2019-04-04T23:52:48.476Z,53.75
2019-04-04T23:56:18.540Z,53.82
2019-04-04T23:59:48.630Z,53.88
